sensor_id;sensor_type;location;lat;lon;timestamp;P1;durP1;ratioP1;P2;durP2;ratioP2
48516;SDS011;34310;51.904;4.256;2023-02-21T00:02:28;6.85;;;4.20;;
48516;SDS011;34310;51.904;4.256;2023-02-21T00:05:14;7.47;;;4.53;;
48516;SDS011;34310;51.904;4.256;2023-02-21T00:08:00;6.28;;;4.18;;
48516;SDS011;34310;51.904;4.256;2023-02-21T00:10:46;6.82;;;4.03;;
48516;SDS011;34310;51.904;4.256;2023-02-21T00:13:35;6.35;;;4.20;;
48516;SDS011;34310;51.904;4.256;2023-02-21T00:16:22;5.43;;;3.90;;
48516;SDS011;34310;51.904;4.256;2023-02-21T00:19:08;5.82;;;4.00;;
48516;SDS011;34310;51.904;4.256;2023-02-21T00:21:54;7.32;;;4.18;;
48516;SDS011;34310;51.904;4.256;2023-02-21T00:24:40;5.78;;;4.18;;
48516;SDS011;34310;51.904;4.256;2023-02-21T00:27:26;5.28;;;3.72;;
48516;SDS011;34310;51.904;4.256;2023-02-21T00:30:13;6.50;;;4.40;;
48516;SDS011;34310;51.904;4.256;2023-02-21T00:32:59;5.70;;;4.22;;
48516;SDS011;34310;51.904;4.256;2023-02-21T00:35:45;6.43;;;4.50;;
48516;SDS011;34310;51.904;4.256;2023-02-21T00:38:31;6.68;;;4.53;;
48516;SDS011;34310;51.904;4.256;2023-02-21T00:41:17;6.90;;;4.45;;
48516;SDS011;34310;51.904;4.256;2023-02-21T00:44:05;6.40;;;4.40;;
48516;SDS011;34310;51.904;4.256;2023-02-21T00:46:50;7.30;;;4.68;;
48516;SDS011;34310;51.904;4.256;2023-02-21T00:49:37;7.97;;;4.72;;
48516;SDS011;34310;51.904;4.256;2023-02-21T00:52:22;5.68;;;4.43;;
48516;SDS011;34310;51.904;4.256;2023-02-21T00:55:08;5.88;;;4.93;;
48516;SDS011;34310;51.904;4.256;2023-02-21T00:57:54;6.95;;;4.88;;
48516;SDS011;34310;51.904;4.256;2023-02-21T01:00:40;6.75;;;4.93;;
48516;SDS011;34310;51.904;4.256;2023-02-21T01:03:27;7.72;;;4.97;;
48516;SDS011;34310;51.904;4.256;2023-02-21T01:06:13;6.25;;;4.82;;
48516;SDS011;34310;51.904;4.256;2023-02-21T01:08:58;8.30;;;5.22;;
48516;SDS011;34310;51.904;4.256;2023-02-21T01:11:44;8.43;;;5.32;;
48516;SDS011;34310;51.904;4.256;2023-02-21T01:14:30;7.28;;;5.28;;
48516;SDS011;34310;51.904;4.256;2023-02-21T01:17:16;6.50;;;5.32;;
48516;SDS011;34310;51.904;4.256;2023-02-21T01:20:02;8.85;;;5.18;;
48516;SDS011;34310;51.904;4.256;2023-02-21T01:22:48;8.95;;;5.43;;
48516;SDS011;34310;51.904;4.256;2023-02-21T01:25:34;8.07;;;5.43;;
48516;SDS011;34310;51.904;4.256;2023-02-21T01:28:19;7.47;;;5.05;;
48516;SDS011;34310;51.904;4.256;2023-02-21T01:31:05;6.50;;;4.95;;
48516;SDS011;34310;51.904;4.256;2023-02-21T01:33:52;8.88;;;5.90;;
48516;SDS011;34310;51.904;4.256;2023-02-21T01:36:41;7.32;;;5.43;;
48516;SDS011;34310;51.904;4.256;2023-02-21T01:39:26;9.23;;;6.22;;
48516;SDS011;34310;51.904;4.256;2023-02-21T01:42:12;9.02;;;6.20;;
48516;SDS011;34310;51.904;4.256;2023-02-21T01:45:33;7.43;;;5.20;;
48516;SDS011;34310;51.904;4.256;2023-02-21T01:48:14;7.93;;;5.78;;
48516;SDS011;34310;51.904;4.256;2023-02-21T01:51:06;7.78;;;5.60;;
48516;SDS011;34310;51.904;4.256;2023-02-21T01:53:54;6.95;;;5.03;;
48516;SDS011;34310;51.904;4.256;2023-02-21T01:56:40;5.82;;;4.80;;
48516;SDS011;34310;51.904;4.256;2023-02-21T01:59:27;7.95;;;5.55;;
48516;SDS011;34310;51.904;4.256;2023-02-21T02:02:17;9.02;;;5.93;;
48516;SDS011;34310;51.904;4.256;2023-02-21T02:05:20;8.05;;;5.63;;
48516;SDS011;34310;51.904;4.256;2023-02-21T02:08:07;8.73;;;5.90;;
48516;SDS011;34310;51.904;4.256;2023-02-21T02:11:08;7.05;;;5.13;;
48516;SDS011;34310;51.904;4.256;2023-02-21T02:14:07;9.13;;;5.70;;
48516;SDS011;34310;51.904;4.256;2023-02-21T02:19:54;8.48;;;5.53;;
48516;SDS011;34310;51.904;4.256;2023-02-21T02:22:44;6.85;;;5.57;;
48516;SDS011;34310;51.904;4.256;2023-02-21T02:25:55;8.43;;;5.60;;
48516;SDS011;34310;51.904;4.256;2023-02-21T02:33:55;8.55;;;6.60;;
48516;SDS011;34310;51.904;4.256;2023-02-21T02:36:38;7.68;;;6.00;;
48516;SDS011;34310;51.904;4.256;2023-02-21T02:45:02;9.02;;;6.28;;
48516;SDS011;34310;51.904;4.256;2023-02-21T02:47:39;8.20;;;6.30;;
48516;SDS011;34310;51.904;4.256;2023-02-21T02:50:10;9.15;;;6.72;;
48516;SDS011;34310;51.904;4.256;2023-02-21T02:52:50;7.90;;;6.78;;
48516;SDS011;34310;51.904;4.256;2023-02-21T02:55:23;7.53;;;6.20;;
48516;SDS011;34310;51.904;4.256;2023-02-21T02:57:59;7.53;;;6.72;;
48516;SDS011;34310;51.904;4.256;2023-02-21T03:00:28;8.50;;;6.50;;
48516;SDS011;34310;51.904;4.256;2023-02-21T03:11:00;9.50;;;7.03;;
48516;SDS011;34310;51.904;4.256;2023-02-21T03:13:52;10.15;;;7.32;;
48516;SDS011;34310;51.904;4.256;2023-02-21T03:16:26;8.85;;;7.35;;
48516;SDS011;34310;51.904;4.256;2023-02-21T03:19:18;8.60;;;6.82;;
48516;SDS011;34310;51.904;4.256;2023-02-21T03:21:53;8.68;;;7.28;;
48516;SDS011;34310;51.904;4.256;2023-02-21T03:24:25;10.02;;;7.57;;
48516;SDS011;34310;51.904;4.256;2023-02-21T03:26:55;9.55;;;7.53;;
48516;SDS011;34310;51.904;4.256;2023-02-21T03:29:27;8.93;;;7.28;;
48516;SDS011;34310;51.904;4.256;2023-02-21T03:31:59;10.82;;;8.50;;
48516;SDS011;34310;51.904;4.256;2023-02-21T03:34:37;8.93;;;7.22;;
48516;SDS011;34310;51.904;4.256;2023-02-21T03:37:09;9.88;;;8.27;;
48516;SDS011;34310;51.904;4.256;2023-02-21T03:39:44;7.85;;;7.05;;
48516;SDS011;34310;51.904;4.256;2023-02-21T03:42:11;8.50;;;7.35;;
48516;SDS011;34310;51.904;4.256;2023-02-21T03:44:38;9.93;;;7.75;;
48516;SDS011;34310;51.904;4.256;2023-02-21T03:47:06;10.57;;;8.32;;
48516;SDS011;34310;51.904;4.256;2023-02-21T03:49:33;9.68;;;7.25;;
48516;SDS011;34310;51.904;4.256;2023-02-21T03:52:00;8.55;;;7.65;;
48516;SDS011;34310;51.904;4.256;2023-02-21T03:54:28;8.60;;;7.22;;
48516;SDS011;34310;51.904;4.256;2023-02-21T03:56:55;8.63;;;7.72;;
48516;SDS011;34310;51.904;4.256;2023-02-21T03:59:22;8.82;;;7.93;;
48516;SDS011;34310;51.904;4.256;2023-02-21T04:01:50;8.98;;;7.47;;
48516;SDS011;34310;51.904;4.256;2023-02-21T04:04:17;10.25;;;8.35;;
48516;SDS011;34310;51.904;4.256;2023-02-21T04:06:44;7.97;;;7.18;;
48516;SDS011;34310;51.904;4.256;2023-02-21T04:09:11;8.10;;;7.28;;
48516;SDS011;34310;51.904;4.256;2023-02-21T04:11:45;10.07;;;7.70;;
48516;SDS011;34310;51.904;4.256;2023-02-21T04:14:12;9.95;;;7.50;;
48516;SDS011;34310;51.904;4.256;2023-02-21T04:16:40;9.68;;;7.63;;
48516;SDS011;34310;51.904;4.256;2023-02-21T04:19:07;8.45;;;7.55;;
48516;SDS011;34310;51.904;4.256;2023-02-21T04:21:36;9.75;;;7.00;;
48516;SDS011;34310;51.904;4.256;2023-02-21T04:24:03;10.30;;;7.55;;
48516;SDS011;34310;51.904;4.256;2023-02-21T04:26:31;8.02;;;7.20;;
48516;SDS011;34310;51.904;4.256;2023-02-21T04:29:00;9.02;;;7.43;;
48516;SDS011;34310;51.904;4.256;2023-02-21T04:31:30;8.90;;;7.57;;
48516;SDS011;34310;51.904;4.256;2023-02-21T04:33:58;7.68;;;6.88;;
48516;SDS011;34310;51.904;4.256;2023-02-21T04:36:37;8.85;;;7.40;;
48516;SDS011;34310;51.904;4.256;2023-02-21T04:39:05;8.43;;;7.05;;
48516;SDS011;34310;51.904;4.256;2023-02-21T04:41:33;9.25;;;7.13;;
48516;SDS011;34310;51.904;4.256;2023-02-21T04:44:01;9.13;;;6.90;;
48516;SDS011;34310;51.904;4.256;2023-02-21T04:46:28;7.72;;;6.68;;
48516;SDS011;34310;51.904;4.256;2023-02-21T04:48:56;9.32;;;6.93;;
48516;SDS011;34310;51.904;4.256;2023-02-21T04:51:23;8.68;;;7.05;;
48516;SDS011;34310;51.904;4.256;2023-02-21T04:53:52;7.55;;;6.85;;
48516;SDS011;34310;51.904;4.256;2023-02-21T04:56:21;7.90;;;7.10;;
48516;SDS011;34310;51.904;4.256;2023-02-21T04:58:50;9.45;;;7.57;;
48516;SDS011;34310;51.904;4.256;2023-02-21T05:01:18;9.07;;;7.50;;
48516;SDS011;34310;51.904;4.256;2023-02-21T05:03:47;7.70;;;6.90;;
48516;SDS011;34310;51.904;4.256;2023-02-21T05:06:18;7.60;;;6.80;;
48516;SDS011;34310;51.904;4.256;2023-02-21T05:08:47;8.27;;;7.43;;
48516;SDS011;34310;51.904;4.256;2023-02-21T05:11:15;7.90;;;7.07;;
48516;SDS011;34310;51.904;4.256;2023-02-21T05:13:44;8.10;;;7.07;;
48516;SDS011;34310;51.904;4.256;2023-02-21T05:16:11;7.78;;;6.78;;
48516;SDS011;34310;51.904;4.256;2023-02-21T05:18:42;8.48;;;7.38;;
48516;SDS011;34310;51.904;4.256;2023-02-21T05:21:11;7.85;;;6.97;;
48516;SDS011;34310;51.904;4.256;2023-02-21T05:23:40;8.32;;;7.25;;
48516;SDS011;34310;51.904;4.256;2023-02-21T05:26:12;9.65;;;7.75;;
48516;SDS011;34310;51.904;4.256;2023-02-21T05:28:39;8.82;;;7.70;;
48516;SDS011;34310;51.904;4.256;2023-02-21T05:31:07;9.10;;;7.63;;
48516;SDS011;34310;51.904;4.256;2023-02-21T05:33:34;9.10;;;7.60;;
48516;SDS011;34310;51.904;4.256;2023-02-21T05:36:02;8.43;;;7.53;;
48516;SDS011;34310;51.904;4.256;2023-02-21T05:38:29;10.15;;;7.82;;
48516;SDS011;34310;51.904;4.256;2023-02-21T05:40:56;9.05;;;7.45;;
48516;SDS011;34310;51.904;4.256;2023-02-21T05:43:24;8.27;;;7.32;;
48516;SDS011;34310;51.904;4.256;2023-02-21T05:45:54;8.88;;;7.45;;
48516;SDS011;34310;51.904;4.256;2023-02-21T05:48:22;8.18;;;7.10;;
48516;SDS011;34310;51.904;4.256;2023-02-21T05:50:49;8.48;;;7.25;;
48516;SDS011;34310;51.904;4.256;2023-02-21T05:53:16;8.80;;;7.88;;
48516;SDS011;34310;51.904;4.256;2023-02-21T05:55:44;9.20;;;7.40;;
48516;SDS011;34310;51.904;4.256;2023-02-21T05:58:11;8.27;;;7.43;;
48516;SDS011;34310;51.904;4.256;2023-02-21T06:00:38;8.85;;;7.82;;
48516;SDS011;34310;51.904;4.256;2023-02-21T06:03:06;8.23;;;7.43;;
48516;SDS011;34310;51.904;4.256;2023-02-21T06:05:34;7.95;;;7.15;;
48516;SDS011;34310;51.904;4.256;2023-02-21T06:08:01;9.80;;;7.60;;
48516;SDS011;34310;51.904;4.256;2023-02-21T06:10:28;9.40;;;7.57;;
48516;SDS011;34310;51.904;4.256;2023-02-21T06:12:56;8.23;;;7.13;;
48516;SDS011;34310;51.904;4.256;2023-02-21T06:15:23;8.77;;;7.63;;
48516;SDS011;34310;51.904;4.256;2023-02-21T06:17:50;8.48;;;7.63;;
48516;SDS011;34310;51.904;4.256;2023-02-21T06:20:18;10.35;;;8.32;;
48516;SDS011;34310;51.904;4.256;2023-02-21T06:22:45;10.13;;;7.93;;
48516;SDS011;34310;51.904;4.256;2023-02-21T06:25:14;9.82;;;8.18;;
48516;SDS011;34310;51.904;4.256;2023-02-21T06:27:42;8.25;;;7.43;;
48516;SDS011;34310;51.904;4.256;2023-02-21T06:30:09;8.82;;;7.90;;
48516;SDS011;34310;51.904;4.256;2023-02-21T06:32:37;9.35;;;8.35;;
48516;SDS011;34310;51.904;4.256;2023-02-21T06:35:05;9.63;;;7.88;;
48516;SDS011;34310;51.904;4.256;2023-02-21T06:37:33;8.63;;;7.72;;
48516;SDS011;34310;51.904;4.256;2023-02-21T06:40:00;9.70;;;8.10;;
48516;SDS011;34310;51.904;4.256;2023-02-21T06:42:30;10.43;;;8.43;;
48516;SDS011;34310;51.904;4.256;2023-02-21T06:44:57;9.25;;;8.35;;
48516;SDS011;34310;51.904;4.256;2023-02-21T06:47:25;10.13;;;8.27;;
48516;SDS011;34310;51.904;4.256;2023-02-21T06:49:52;10.02;;;8.15;;
48516;SDS011;34310;51.904;4.256;2023-02-21T06:52:19;9.48;;;8.27;;
48516;SDS011;34310;51.904;4.256;2023-02-21T06:54:48;8.85;;;7.80;;
48516;SDS011;34310;51.904;4.256;2023-02-21T06:57:16;10.45;;;8.90;;
48516;SDS011;34310;51.904;4.256;2023-02-21T06:59:44;9.98;;;8.45;;
48516;SDS011;34310;51.904;4.256;2023-02-21T07:02:15;9.23;;;8.30;;
48516;SDS011;34310;51.904;4.256;2023-02-21T07:04:45;10.23;;;8.82;;
48516;SDS011;34310;51.904;4.256;2023-02-21T07:07:13;8.93;;;7.93;;
48516;SDS011;34310;51.904;4.256;2023-02-21T07:09:41;8.90;;;8.00;;
48516;SDS011;34310;51.904;4.256;2023-02-21T07:12:09;10.38;;;8.52;;
48516;SDS011;34310;51.904;4.256;2023-02-21T07:14:36;9.13;;;8.10;;
48516;SDS011;34310;51.904;4.256;2023-02-21T07:17:03;9.93;;;8.40;;
48516;SDS011;34310;51.904;4.256;2023-02-21T07:19:31;9.18;;;8.27;;
48516;SDS011;34310;51.904;4.256;2023-02-21T07:21:59;11.52;;;8.95;;
48516;SDS011;34310;51.904;4.256;2023-02-21T07:24:26;9.45;;;8.35;;
48516;SDS011;34310;51.904;4.256;2023-02-21T07:26:53;8.80;;;7.80;;
48516;SDS011;34310;51.904;4.256;2023-02-21T07:29:21;12.43;;;7.47;;
48516;SDS011;34310;51.904;4.256;2023-02-21T07:31:49;12.00;;;8.50;;
48516;SDS011;34310;51.904;4.256;2023-02-21T07:34:16;14.95;;;9.35;;
48516;SDS011;34310;51.904;4.256;2023-02-21T07:36:45;14.00;;;8.80;;
48516;SDS011;34310;51.904;4.256;2023-02-21T07:39:12;12.75;;;8.35;;
48516;SDS011;34310;51.904;4.256;2023-02-21T07:41:39;12.25;;;9.15;;
48516;SDS011;34310;51.904;4.256;2023-02-21T07:44:07;11.18;;;7.95;;
48516;SDS011;34310;51.904;4.256;2023-02-21T07:46:35;12.48;;;7.97;;
48516;SDS011;34310;51.904;4.256;2023-02-21T07:49:02;11.40;;;8.15;;
48516;SDS011;34310;51.904;4.256;2023-02-21T07:51:30;8.68;;;7.75;;
48516;SDS011;34310;51.904;4.256;2023-02-21T07:53:57;10.85;;;7.80;;
48516;SDS011;34310;51.904;4.256;2023-02-21T07:56:24;9.75;;;7.95;;
48516;SDS011;34310;51.904;4.256;2023-02-21T07:58:52;13.27;;;7.97;;
48516;SDS011;34310;51.904;4.256;2023-02-21T08:01:21;12.30;;;8.27;;
48516;SDS011;34310;51.904;4.256;2023-02-21T08:03:50;10.52;;;7.78;;
48516;SDS011;34310;51.904;4.256;2023-02-21T08:06:17;11.98;;;7.78;;
48516;SDS011;34310;51.904;4.256;2023-02-21T08:08:44;10.63;;;7.85;;
48516;SDS011;34310;51.904;4.256;2023-02-21T08:11:12;9.23;;;7.68;;
48516;SDS011;34310;51.904;4.256;2023-02-21T08:13:39;10.93;;;7.10;;
48516;SDS011;34310;51.904;4.256;2023-02-21T08:16:07;9.02;;;7.32;;
48516;SDS011;34310;51.904;4.256;2023-02-21T08:18:34;8.82;;;7.05;;
48516;SDS011;34310;51.904;4.256;2023-02-21T08:21:01;9.60;;;7.47;;
48516;SDS011;34310;51.904;4.256;2023-02-21T08:23:29;11.10;;;7.22;;
48516;SDS011;34310;51.904;4.256;2023-02-21T08:25:56;11.18;;;7.47;;
48516;SDS011;34310;51.904;4.256;2023-02-21T08:28:24;11.35;;;7.60;;
48516;SDS011;34310;51.904;4.256;2023-02-21T08:30:51;9.02;;;7.07;;
48516;SDS011;34310;51.904;4.256;2023-02-21T08:33:19;8.88;;;7.13;;
48516;SDS011;34310;51.904;4.256;2023-02-21T08:35:46;10.82;;;7.18;;
48516;SDS011;34310;51.904;4.256;2023-02-21T08:38:14;9.00;;;7.05;;
48516;SDS011;34310;51.904;4.256;2023-02-21T08:40:43;9.68;;;7.18;;
48516;SDS011;34310;51.904;4.256;2023-02-21T08:43:10;10.13;;;6.82;;
48516;SDS011;34310;51.904;4.256;2023-02-21T08:45:37;9.23;;;6.82;;
48516;SDS011;34310;51.904;4.256;2023-02-21T08:48:05;10.18;;;7.10;;
48516;SDS011;34310;51.904;4.256;2023-02-21T08:50:32;9.07;;;7.13;;
48516;SDS011;34310;51.904;4.256;2023-02-21T08:52:59;10.57;;;7.40;;
48516;SDS011;34310;51.904;4.256;2023-02-21T08:55:27;8.88;;;6.88;;
48516;SDS011;34310;51.904;4.256;2023-02-21T08:57:54;8.15;;;7.00;;
48516;SDS011;34310;51.904;4.256;2023-02-21T09:00:22;9.60;;;7.45;;
48516;SDS011;34310;51.904;4.256;2023-02-21T09:02:51;8.68;;;7.05;;
48516;SDS011;34310;51.904;4.256;2023-02-21T09:05:20;9.48;;;7.03;;
48516;SDS011;34310;51.904;4.256;2023-02-21T09:07:56;8.70;;;7.30;;
48516;SDS011;34310;51.904;4.256;2023-02-21T09:10:25;8.63;;;7.07;;
48516;SDS011;34310;51.904;4.256;2023-02-21T09:12:54;8.45;;;6.85;;
48516;SDS011;34310;51.904;4.256;2023-02-21T09:15:22;8.35;;;6.80;;
48516;SDS011;34310;51.904;4.256;2023-02-21T09:17:49;7.88;;;6.53;;
48516;SDS011;34310;51.904;4.256;2023-02-21T09:20:21;11.75;;;7.65;;
48516;SDS011;34310;51.904;4.256;2023-02-21T09:22:50;8.82;;;7.15;;
48516;SDS011;34310;51.904;4.256;2023-02-21T09:25:19;9.10;;;7.00;;
48516;SDS011;34310;51.904;4.256;2023-02-21T09:27:50;7.70;;;6.60;;
48516;SDS011;34310;51.904;4.256;2023-02-21T09:30:21;7.82;;;7.03;;
48516;SDS011;34310;51.904;4.256;2023-02-21T09:32:51;7.75;;;6.75;;
48516;SDS011;34310;51.904;4.256;2023-02-21T09:35:20;9.88;;;7.20;;
48516;SDS011;34310;51.904;4.256;2023-02-21T09:37:48;8.75;;;7.28;;
48516;SDS011;34310;51.904;4.256;2023-02-21T09:43:18;7.75;;;6.45;;
48516;SDS011;34310;51.904;4.256;2023-02-21T09:46:03;8.48;;;6.93;;
48516;SDS011;34310;51.904;4.256;2023-02-21T09:48:51;8.35;;;7.03;;
48516;SDS011;34310;51.904;4.256;2023-02-21T09:51:19;8.95;;;7.25;;
48516;SDS011;34310;51.904;4.256;2023-02-21T09:53:47;9.55;;;7.38;;
48516;SDS011;34310;51.904;4.256;2023-02-21T09:56:25;7.57;;;6.53;;
48516;SDS011;34310;51.904;4.256;2023-02-21T09:58:54;9.05;;;7.15;;
48516;SDS011;34310;51.904;4.256;2023-02-21T10:01:27;7.88;;;7.07;;
48516;SDS011;34310;51.904;4.256;2023-02-21T10:04:12;8.20;;;7.25;;
48516;SDS011;34310;51.904;4.256;2023-02-21T10:06:51;8.52;;;7.47;;
48516;SDS011;34310;51.904;4.256;2023-02-21T10:17:56;9.13;;;7.63;;
48516;SDS011;34310;51.904;4.256;2023-02-21T10:20:26;8.60;;;7.03;;
48516;SDS011;34310;51.904;4.256;2023-02-21T10:23:55;9.27;;;7.22;;
48516;SDS011;34310;51.904;4.256;2023-02-21T10:26:05;8.43;;;6.80;;
48516;SDS011;34310;51.904;4.256;2023-02-21T10:28:38;10.10;;;7.30;;
48516;SDS011;34310;51.904;4.256;2023-02-21T10:31:39;9.10;;;7.93;;
48516;SDS011;34310;51.904;4.256;2023-02-21T10:33:59;7.80;;;7.00;;
48516;SDS011;34310;51.904;4.256;2023-02-21T10:36:28;9.30;;;7.55;;
48516;SDS011;34310;51.904;4.256;2023-02-21T10:38:57;8.73;;;7.60;;
48516;SDS011;34310;51.904;4.256;2023-02-21T10:41:33;9.85;;;8.20;;
48516;SDS011;34310;51.904;4.256;2023-02-21T10:44:15;9.00;;;7.68;;
48516;SDS011;34310;51.904;4.256;2023-02-21T10:47:13;8.82;;;7.72;;
48516;SDS011;34310;51.904;4.256;2023-02-21T10:49:59;8.57;;;7.32;;
48516;SDS011;34310;51.904;4.256;2023-02-21T10:52:35;9.25;;;7.60;;
48516;SDS011;34310;51.904;4.256;2023-02-21T10:55:05;8.25;;;7.38;;
48516;SDS011;34310;51.904;4.256;2023-02-21T10:57:57;10.23;;;7.78;;
48516;SDS011;34310;51.904;4.256;2023-02-21T11:00:40;9.55;;;7.50;;
48516;SDS011;34310;51.904;4.256;2023-02-21T11:06:02;7.72;;;6.88;;
48516;SDS011;34310;51.904;4.256;2023-02-21T11:08:51;9.27;;;7.70;;
48516;SDS011;34310;51.904;4.256;2023-02-21T11:14:07;8.70;;;7.30;;
48516;SDS011;34310;51.904;4.256;2023-02-21T11:17:06;7.82;;;6.65;;
48516;SDS011;34310;51.904;4.256;2023-02-21T11:22:25;8.13;;;7.28;;
48516;SDS011;34310;51.904;4.256;2023-02-21T11:30:42;8.68;;;7.22;;
48516;SDS011;34310;51.904;4.256;2023-02-21T11:33:19;7.63;;;6.72;;
48516;SDS011;34310;51.904;4.256;2023-02-21T11:35:48;7.13;;;6.43;;
48516;SDS011;34310;51.904;4.256;2023-02-21T11:38:40;8.75;;;6.85;;
48516;SDS011;34310;51.904;4.256;2023-02-21T11:41:27;7.30;;;6.55;;
48516;SDS011;34310;51.904;4.256;2023-02-21T11:43:59;7.70;;;6.90;;
48516;SDS011;34310;51.904;4.256;2023-02-21T11:46:36;8.18;;;7.10;;
48516;SDS011;34310;51.904;4.256;2023-02-21T11:49:28;7.25;;;6.55;;
48516;SDS011;34310;51.904;4.256;2023-02-21T11:52:04;7.35;;;6.60;;
48516;SDS011;34310;51.904;4.256;2023-02-21T11:54:38;7.32;;;6.32;;
48516;SDS011;34310;51.904;4.256;2023-02-21T12:00:12;6.95;;;5.97;;
48516;SDS011;34310;51.904;4.256;2023-02-21T12:02:57;6.47;;;5.85;;
48516;SDS011;34310;51.904;4.256;2023-02-21T12:16:51;6.30;;;5.70;;
48516;SDS011;34310;51.904;4.256;2023-02-21T12:36:50;6.35;;;5.55;;
48516;SDS011;34310;51.904;4.256;2023-02-21T12:39:32;5.88;;;5.20;;
48516;SDS011;34310;51.904;4.256;2023-02-21T12:42:32;5.43;;;4.93;;
48516;SDS011;34310;51.904;4.256;2023-02-21T12:45:20;5.35;;;4.85;;
48516;SDS011;34310;51.904;4.256;2023-02-21T12:48:12;6.05;;;4.93;;
48516;SDS011;34310;51.904;4.256;2023-02-21T12:51:08;5.93;;;5.10;;
48516;SDS011;34310;51.904;4.256;2023-02-21T12:53:54;6.35;;;5.10;;
48516;SDS011;34310;51.904;4.256;2023-02-21T12:56:45;5.78;;;5.05;;
48516;SDS011;34310;51.904;4.256;2023-02-21T12:59:28;5.80;;;5.15;;
48516;SDS011;34310;51.904;4.256;2023-02-21T13:05:02;5.03;;;4.53;;
48516;SDS011;34310;51.904;4.256;2023-02-21T13:07:44;5.10;;;4.60;;
48516;SDS011;34310;51.904;4.256;2023-02-21T13:10:45;5.68;;;4.80;;
48516;SDS011;34310;51.904;4.256;2023-02-21T13:13:32;5.15;;;4.65;;
48516;SDS011;34310;51.904;4.256;2023-02-21T13:15:59;5.15;;;4.30;;
48516;SDS011;34310;51.904;4.256;2023-02-21T13:18:35;5.40;;;4.90;;
48516;SDS011;34310;51.904;4.256;2023-02-21T13:21:14;4.70;;;4.25;;
48516;SDS011;34310;51.904;4.256;2023-02-21T13:24:00;4.45;;;4.05;;
48516;SDS011;34310;51.904;4.256;2023-02-21T13:30:17;4.85;;;4.32;;
48516;SDS011;34310;51.904;4.256;2023-02-21T13:33:19;4.68;;;4.18;;
48516;SDS011;34310;51.904;4.256;2023-02-21T13:35:57;5.03;;;4.43;;
48516;SDS011;34310;51.904;4.256;2023-02-21T13:38:26;5.07;;;4.25;;
48516;SDS011;34310;51.904;4.256;2023-02-21T13:41:04;4.38;;;3.97;;
48516;SDS011;34310;51.904;4.256;2023-02-21T13:43:49;5.22;;;4.60;;
48516;SDS011;34310;51.904;4.256;2023-02-21T13:57:41;6.38;;;5.47;;
48516;SDS011;34310;51.904;4.256;2023-02-21T14:10:42;7.60;;;6.40;;
48516;SDS011;34310;51.904;4.256;2023-02-21T14:13:26;8.40;;;6.95;;
48516;SDS011;34310;51.904;4.256;2023-02-21T14:19:00;9.20;;;7.43;;
48516;SDS011;34310;51.904;4.256;2023-02-21T14:21:44;8.90;;;7.53;;
48516;SDS011;34310;51.904;4.256;2023-02-21T14:24:22;9.90;;;8.23;;
48516;SDS011;34310;51.904;4.256;2023-02-21T14:32:34;10.10;;;8.20;;
48516;SDS011;34310;51.904;4.256;2023-02-21T14:35:36;10.50;;;8.45;;
48516;SDS011;34310;51.904;4.256;2023-02-21T14:38:23;11.23;;;8.63;;
48516;SDS011;34310;51.904;4.256;2023-02-21T14:40:57;12.40;;;9.43;;
48516;SDS011;34310;51.904;4.256;2023-02-21T14:49:29;11.15;;;9.07;;
48516;SDS011;34310;51.904;4.256;2023-02-21T14:52:17;12.68;;;9.82;;
48516;SDS011;34310;51.904;4.256;2023-02-21T14:55:01;12.77;;;9.77;;
48516;SDS011;34310;51.904;4.256;2023-02-21T14:57:45;11.68;;;9.45;;
48516;SDS011;34310;51.904;4.256;2023-02-21T15:03:37;12.93;;;10.32;;
48516;SDS011;34310;51.904;4.256;2023-02-21T15:06:19;12.25;;;10.23;;
48516;SDS011;34310;51.904;4.256;2023-02-21T15:08:49;13.40;;;10.68;;
48516;SDS011;34310;51.904;4.256;2023-02-21T15:11:27;13.55;;;10.60;;
48516;SDS011;34310;51.904;4.256;2023-02-21T15:14:13;13.45;;;10.70;;
48516;SDS011;34310;51.904;4.256;2023-02-21T15:16:56;14.68;;;11.05;;
48516;SDS011;34310;51.904;4.256;2023-02-21T15:19:31;15.48;;;12.27;;
48516;SDS011;34310;51.904;4.256;2023-02-21T15:27:27;13.43;;;11.38;;
48516;SDS011;34310;51.904;4.256;2023-02-21T15:30:05;15.63;;;12.18;;
48516;SDS011;34310;51.904;4.256;2023-02-21T15:32:38;13.50;;;11.30;;
48516;SDS011;34310;51.904;4.256;2023-02-21T15:35:06;14.80;;;12.35;;
48516;SDS011;34310;51.904;4.256;2023-02-21T15:37:43;14.95;;;12.15;;
48516;SDS011;34310;51.904;4.256;2023-02-21T15:40:30;14.82;;;12.48;;
48516;SDS011;34310;51.904;4.256;2023-02-21T15:42:57;15.38;;;12.27;;
48516;SDS011;34310;51.904;4.256;2023-02-21T15:45:28;14.93;;;12.27;;
48516;SDS011;34310;51.904;4.256;2023-02-21T15:48:00;16.52;;;12.98;;
48516;SDS011;34310;51.904;4.256;2023-02-21T15:50:30;15.93;;;13.00;;
48516;SDS011;34310;51.904;4.256;2023-02-21T15:53:13;15.55;;;12.60;;
48516;SDS011;34310;51.904;4.256;2023-02-21T15:55:47;15.95;;;13.23;;
48516;SDS011;34310;51.904;4.256;2023-02-21T15:58:17;15.40;;;12.93;;
48516;SDS011;34310;51.904;4.256;2023-02-21T16:01:02;16.20;;;13.52;;
48516;SDS011;34310;51.904;4.256;2023-02-21T16:17:08;16.25;;;13.57;;
48516;SDS011;34310;51.904;4.256;2023-02-21T16:19:42;18.17;;;14.50;;
48516;SDS011;34310;51.904;4.256;2023-02-21T16:22:35;16.13;;;13.43;;
48516;SDS011;34310;51.904;4.256;2023-02-21T16:25:23;18.77;;;14.90;;
48516;SDS011;34310;51.904;4.256;2023-02-21T16:27:52;18.48;;;14.82;;
48516;SDS011;34310;51.904;4.256;2023-02-21T16:30:28;19.17;;;14.93;;
48516;SDS011;34310;51.904;4.256;2023-02-21T16:33:04;18.45;;;14.88;;
48516;SDS011;34310;51.904;4.256;2023-02-21T16:35:31;18.83;;;15.10;;
48516;SDS011;34310;51.904;4.256;2023-02-21T16:37:59;18.55;;;15.15;;
48516;SDS011;34310;51.904;4.256;2023-02-21T16:40:28;18.52;;;15.00;;
48516;SDS011;34310;51.904;4.256;2023-02-21T16:42:58;21.02;;;15.75;;
48516;SDS011;34310;51.904;4.256;2023-02-21T16:45:27;18.77;;;15.70;;
48516;SDS011;34310;51.904;4.256;2023-02-21T16:48:00;19.48;;;16.10;;
48516;SDS011;34310;51.904;4.256;2023-02-21T16:50:31;20.52;;;16.27;;
48516;SDS011;34310;51.904;4.256;2023-02-21T16:53:01;20.35;;;16.10;;
48516;SDS011;34310;51.904;4.256;2023-02-21T16:55:28;21.13;;;16.52;;
48516;SDS011;34310;51.904;4.256;2023-02-21T16:58:04;19.77;;;16.23;;
48516;SDS011;34310;51.904;4.256;2023-02-21T17:00:33;20.23;;;16.42;;
48516;SDS011;34310;51.904;4.256;2023-02-21T17:03:01;20.45;;;16.70;;
48516;SDS011;34310;51.904;4.256;2023-02-21T17:05:28;19.83;;;15.77;;
48516;SDS011;34310;51.904;4.256;2023-02-21T17:07:56;20.27;;;16.33;;
48516;SDS011;34310;51.904;4.256;2023-02-21T17:10:23;18.92;;;16.02;;
48516;SDS011;34310;51.904;4.256;2023-02-21T17:12:51;22.13;;;17.10;;
48516;SDS011;34310;51.904;4.256;2023-02-21T17:15:18;20.92;;;16.95;;
48516;SDS011;34310;51.904;4.256;2023-02-21T17:17:46;21.23;;;17.23;;
48516;SDS011;34310;51.904;4.256;2023-02-21T17:20:19;21.90;;;17.40;;
48516;SDS011;34310;51.904;4.256;2023-02-21T17:22:47;20.88;;;17.42;;
48516;SDS011;34310;51.904;4.256;2023-02-21T17:25:15;19.27;;;16.23;;
48516;SDS011;34310;51.904;4.256;2023-02-21T17:27:43;21.00;;;16.95;;
48516;SDS011;34310;51.904;4.256;2023-02-21T17:30:11;19.08;;;15.82;;
48516;SDS011;34310;51.904;4.256;2023-02-21T17:32:39;18.98;;;15.38;;
48516;SDS011;34310;51.904;4.256;2023-02-21T17:35:06;20.45;;;16.80;;
48516;SDS011;34310;51.904;4.256;2023-02-21T17:37:34;22.33;;;17.08;;
48516;SDS011;34310;51.904;4.256;2023-02-21T17:40:01;20.83;;;16.77;;
48516;SDS011;34310;51.904;4.256;2023-02-21T17:42:29;21.73;;;17.60;;
48516;SDS011;34310;51.904;4.256;2023-02-21T17:44:56;21.55;;;16.55;;
48516;SDS011;34310;51.904;4.256;2023-02-21T17:47:25;19.27;;;15.75;;
48516;SDS011;34310;51.904;4.256;2023-02-21T17:49:52;18.88;;;15.60;;
48516;SDS011;34310;51.904;4.256;2023-02-21T17:52:20;17.45;;;14.60;;